Time;durP1;ratioP1;P1;durP2;ratioP2;P2;SDS_P1;SDS_P2;PMS_P1;PMS_P2;Temp;Humidity;BMP_temperature;BMP_pressure;BME280_temperature;BME280_humidity;BME280_pressure;Samples;Min_cycle;Max_cycle;Signal;HPM_P1;HPM_P2
2023/12/29 00:01:18;;;;;;;81.90;25.20;;;;;;;2.33;99.85;100310.90;105538;1257;69198;-58
2023/12/29 00:03:46;;;;;;;125.40;35.70;;;;;;;2.39;99.78;100308.30;105634;1256;69218;-58
2023/12/29 00:06:15;;;;;;;122.90;34.60;;;;;;;2.42;99.77;100311.37;105581;1256;74153;-58
2023/12/29 00:08:43;;;;;;;80.10;27.10;;;;;;;2.47;99.94;100313.25;105591;1256;81486;-58
2023/12/29 00:11:20;;;;;;;124.20;35.00;;;;;;;2.48;99.73;100309.28;105590;1255;73068;-58
2023/12/29 00:13:49;;;;;;;107.70;27.40;;;;;;;2.48;99.57;100303.23;105606;1256;69090;-58
2023/12/29 00:16:17;;;;;;;90.60;26.00;;;;;;;2.50;99.88;100298.58;105659;1256;69632;-58
2023/12/29 00:18:46;;;;;;;57.50;20.10;;;;;;;2.49;99.55;100292.53;105618;1264;72824;-58
2023/12/29 00:21:14;;;;;;;74.80;23.60;;;;;;;2.46;99.32;100294.45;105605;1264;81474;-58
2023/12/29 00:23:45;;;;;;;60.60;21.60;;;;;;;2.42;99.06;100292.23;105575;1257;72132;-59
2023/12/29 00:26:17;;;;;;;61.70;20.30;;;;;;;2.37;98.85;100294.52;105616;1254;69254;-58
2023/12/29 00:28:53;;;;;;;51.60;20.30;;;;;;;2.34;98.96;100289.68;105569;1256;69180;-58
2023/12/29 00:31:22;;;;;;;60.10;23.40;;;;;;;2.32;99.03;100288.15;105543;1259;73259;-58
2023/12/29 00:33:52;;;;;;;45.80;19.40;;;;;;;2.26;99.02;100290.08;105599;1258;81308;-58
2023/12/29 00:36:21;;;;;;;52.30;20.40;;;;;;;2.19;98.38;100289.93;105575;1257;72336;-58
2023/12/29 00:38:50;;;;;;;46.30;19.90;;;;;;;2.14;98.79;100292.88;105625;1256;69208;-58
2023/12/29 00:41:18;;;;;;;51.40;20.30;;;;;;;2.11;98.99;100292.73;105568;1257;69171;-58
2023/12/29 00:43:46;;;;;;;50.50;20.00;;;;;;;2.09;99.04;100289.81;105594;1256;73488;-58
2023/12/29 00:46:17;;;;;;;40.30;18.50;;;;;;;2.08;99.19;100290.16;105566;1256;81559;-58
2023/12/29 00:48:46;;;;;;;44.70;18.10;;;;;;;2.04;99.17;100288.45;105663;1256;71625;-58
2023/12/29 00:51:14;;;;;;;39.70;17.80;;;;;;;2.02;99.22;100285.69;105692;1256;69180;-60
2023/12/29 00:53:43;;;;;;;43.30;19.90;;;;;;;2.01;99.55;100281.91;105588;1258;69212;-58
2023/12/29 00:56:12;;;;;;;46.40;20.20;;;;;;;1.97;99.07;100281.05;105655;1256;73429;-58
2023/12/29 00:58:41;;;;;;;42.30;19.60;;;;;;;1.90;99.18;100283.50;105631;1258;82732;-58
2023/12/29 01:01:11;;;;;;;39.60;19.40;;;;;;;1.85;99.12;100284.55;105518;1256;71822;-58
2023/12/29 01:03:40;;;;;;;38.60;18.40;;;;;;;1.77;98.72;100283.20;105479;1257;69486;-57
2023/12/29 01:06:08;;;;;;;35.10;18.10;;;;;;;1.70;98.77;100279.95;105507;1259;70640;-58
2023/12/29 01:08:37;;;;;;;37.10;19.10;;;;;;;1.65;98.83;100281.00;105608;1257;73289;-58
2023/12/29 01:11:05;;;;;;;36.10;19.30;;;;;;;1.58;98.57;100277.75;105566;1260;82414;-57
2023/12/29 01:13:33;;;;;;;34.50;17.90;;;;;;;1.52;98.90;100274.31;105499;1251;72338;-57
2023/12/29 01:16:01;;;;;;;45.20;20.80;;;;;;;1.51;99.27;100273.98;105555;1257;69112;-57
2023/12/29 01:18:29;;;;;;;39.40;19.10;;;;;;;1.50;99.30;100267.77;105569;1255;69170;-57
2023/12/29 01:20:58;;;;;;;90.20;29.40;;;;;;;1.49;99.63;100268.11;105579;1257;72826;-58
2023/12/29 01:23:26;;;;;;;102.30;32.90;;;;;;;1.53;99.94;100267.25;105497;1258;81732;-58
2023/12/29 01:25:54;;;;;;;81.20;26.90;;;;;;;1.57;100.00;100265.86;105578;1252;72349;-58
2023/12/29 01:28:22;;;;;;;129.30;35.10;;;;;;;1.60;100.00;100264.83;105572;1256;69246;-58
2023/12/29 01:30:50;;;;;;;94.40;28.50;;;;;;;1.61;100.00;100258.44;105465;1257;69250;-57
2023/12/29 01:33:21;;;;;;;163.10;42.00;;;;;;;1.65;100.00;100249.30;105682;1256;71697;-58
2023/12/29 01:35:51;;;;;;;110.00;31.90;;;;;;;1.70;100.00;100243.79;105619;1252;80518;-57
2023/12/29 01:38:19;;;;;;;96.60;28.90;;;;;;;1.75;100.00;100240.31;105529;1252;71336;-58
2023/12/29 01:40:47;;;;;;;125.80;36.20;;;;;;;1.80;100.00;100235.82;105571;1251;69213;-58
2023/12/29 01:43:15;;;;;;;72.60;24.70;;;;;;;1.83;100.00;100244.59;105515;1257;69149;-57
2023/12/29 01:45:44;;;;;;;46.10;18.60;;;;;;;1.84;100.00;100248.04;105571;1257;74589;-58
2023/12/29 01:48:25;;;;;;;58.20;21.50;;;;;;;1.85;100.00;100248.02;105589;1255;82264;-58
2023/12/29 01:50:54;;;;;;;49.30;19.60;;;;;;;1.86;100.00;100249.40;105505;1256;72984;-58
2023/12/29 01:53:22;;;;;;;41.90;18.70;;;;;;;1.85;100.00;100250.95;105570;1255;69330;-58
2023/12/29 01:56:06;;;;;;;35.10;15.70;;;;;;;1.85;100.00;100248.55;105608;1264;69106;-58
2023/12/29 01:58:34;;;;;;;36.40;17.60;;;;;;;1.88;100.00;100245.25;105357;1266;72958;-58
2023/12/29 02:01:03;;;;;;;32.80;16.30;;;;;;;1.85;100.00;100238.90;105550;1258;80435;-58
2023/12/29 02:03:32;;;;;;;27.50;14.40;;;;;;;1.78;100.00;100235.48;105487;1257;71618;-57
2023/12/29 02:06:01;;;;;;;27.60;14.90;;;;;;;1.70;99.93;100233.96;105544;1256;69142;-57
2023/12/29 02:08:29;;;;;;;32.20;15.40;;;;;;;1.59;99.59;100229.00;105665;1255;69113;-58
2023/12/29 02:10:58;;;;;;;29.90;15.80;;;;;;;1.49;99.50;100229.20;105602;1252;72853;-57
2023/12/29 02:13:26;;;;;;;24.30;12.90;;;;;;;1.41;99.28;100224.41;105540;1258;80250;-57
2023/12/29 02:15:58;;;;;;;24.40;13.80;;;;;;;1.33;99.60;100222.52;105410;1254;71743;-58
2023/12/29 02:18:27;;;;;;;27.00;14.70;;;;;;;1.27;99.85;100219.77;105555;1256;69134;-58
2023/12/29 02:20:55;;;;;;;24.30;13.70;;;;;;;1.24;99.84;100213.09;105660;1256;69196;-58
2023/12/29 02:23:23;;;;;;;25.60;13.00;;;;;;;1.20;100.00;100207.23;105556;1251;71930;-58
2023/12/29 02:25:55;;;;;;;26.90;13.80;;;;;;;1.20;100.00;100200.36;105566;1255;81409;-58
2023/12/29 02:28:26;;;;;;;24.50;13.60;;;;;;;1.18;100.00;100196.91;105462;1251;71602;-59
2023/12/29 02:31:01;;;;;;;24.20;13.90;;;;;;;1.18;100.00;100187.10;105625;1251;69166;-59
2023/12/29 02:33:32;;;;;;;23.50;13.20;;;;;;;1.18;100.00;100190.20;105551;1256;69179;-58
2023/12/29 02:36:02;;;;;;;21.80;12.50;;;;;;;1.19;100.00;100189.69;105610;1251;72605;-58
2023/12/29 02:38:30;;;;;;;24.30;14.00;;;;;;;1.21;100.00;100184.86;105490;1258;80857;-59
2023/12/29 02:40:59;;;;;;;26.50;14.50;;;;;;;1.24;100.00;100181.06;105601;1251;70531;-58
2023/12/29 02:43:27;;;;;;;35.80;15.90;;;;;;;1.28;100.00;100181.73;105597;1257;69164;-59
2023/12/29 02:45:55;;;;;;;27.30;14.00;;;;;;;1.34;100.00;100183.96;105604;1256;69262;-58
2023/12/29 02:48:24;;;;;;;29.40;14.50;;;;;;;1.38;100.00;100180.00;105571;1256;73284;-59
2023/12/29 02:50:52;;;;;;;35.50;17.10;;;;;;;1.40;100.00;100179.46;105632;1258;81572;-59
2023/12/29 02:53:20;;;;;;;47.70;20.10;;;;;;;1.43;100.00;100180.15;105471;1254;70695;-59
2023/12/29 02:55:48;;;;;;;35.80;15.50;;;;;;;1.46;100.00;100170.84;105575;1255;69128;-59
2023/12/29 02:58:17;;;;;;;38.70;15.20;;;;;;;1.48;100.00;100168.08;105581;1256;69165;-59
2023/12/29 03:00:45;;;;;;;23.10;11.90;;;;;;;1.51;100.00;100169.95;105690;1256;73359;-58
2023/12/29 03:03:14;;;;;;;20.20;11.60;;;;;;;1.55;100.00;100162.54;105560;1256;81408;-58
2023/12/29 03:05:42;;;;;;;25.20;12.60;;;;;;;1.62;100.00;100161.99;105647;1256;72832;-59
2023/12/29 03:08:10;;;;;;;19.80;11.00;;;;;;;1.66;100.00;100159.55;105536;1256;69261;-59
2023/12/29 03:10:40;;;;;;;20.30;10.90;;;;;;;1.69;100.00;100157.48;105613;1256;69178;-59
2023/12/29 03:13:08;;;;;;;21.70;11.20;;;;;;;1.70;100.00;100160.59;105615;1255;72628;-59
2023/12/29 03:15:37;;;;;;;22.70;12.00;;;;;;;1.69;100.00;100159.20;105630;1251;81681;-58
2023/12/29 03:18:05;;;;;;;22.30;11.20;;;;;;;1.64;100.00;100158.88;105472;1256;72906;-59
2023/12/29 03:20:34;;;;;;;21.10;11.80;;;;;;;1.58;100.00;100155.64;105531;1257;69205;-59
2023/12/29 03:23:03;;;;;;;22.20;11.60;;;;;;;1.52;100.00;100154.80;105456;1256;69110;-58
2023/12/29 03:25:31;;;;;;;19.80;11.10;;;;;;;1.47;100.00;100158.77;105666;1251;72643;-58
2023/12/29 03:28:00;;;;;;;22.40;12.00;;;;;;;1.43;100.00;100153.98;105570;1256;81662;-59
2023/12/29 03:30:29;;;;;;;19.90;11.30;;;;;;;1.41;100.00;100150.52;105609;1251;71700;-59
2023/12/29 03:32:57;;;;;;;19.80;11.20;;;;;;;1.41;100.00;100148.98;105453;1257;69186;-59
2023/12/29 03:35:26;;;;;;;19.10;10.10;;;;;;;1.42;100.00;100146.24;105579;1257;69237;-59
2023/12/29 03:37:54;;;;;;;19.50;11.10;;;;;;;1.41;100.00;100145.02;105464;1251;72834;-59
2023/12/29 03:40:22;;;;;;;20.50;10.50;;;;;;;1.40;100.00;100141.59;105537;1256;81655;-59
2023/12/29 03:42:50;;;;;;;17.60;9.80;;;;;;;1.38;100.00;100145.73;105450;1251;72097;-59
2023/12/29 03:45:18;;;;;;;16.10;10.80;;;;;;;1.33;100.00;100144.54;105483;1257;69106;-59
2023/12/29 03:47:48;;;;;;;19.70;10.20;;;;;;;1.32;100.00;100140.92;105690;1251;69073;-58
2023/12/29 03:50:16;;;;;;;20.10;10.10;;;;;;;1.30;100.00;100136.81;105479;1251;72587;-59
2023/12/29 03:52:44;;;;;;;17.90;9.90;;;;;;;1.29;100.00;100126.14;105678;1256;81979;-58
2023/12/29 03:55:13;;;;;;;22.60;10.90;;;;;;;1.27;100.00;100129.07;105561;1251;71684;-58
2023/12/29 03:57:43;;;;;;;18.40;10.80;;;;;;;1.25;100.00;100124.44;105670;1258;69126;-57
2023/12/29 04:00:13;;;;;;;18.90;10.00;;;;;;;1.24;100.00;100118.07;105624;1251;69257;-57
2023/12/29 04:02:41;;;;;;;20.10;11.60;;;;;;;1.25;100.00;100116.17;105571;1251;72976;-57
2023/12/29 04:05:12;;;;;;;22.00;11.00;;;;;;;1.25;100.00;100108.60;105625;1256;80482;-57
2023/12/29 04:07:40;;;;;;;24.20;13.10;;;;;;;1.26;100.00;100111.70;105598;1256;71596;-57
2023/12/29 04:10:09;;;;;;;32.00;16.00;;;;;;;1.26;100.00;100114.79;105609;1251;69222;-57
2023/12/29 04:12:37;;;;;;;23.20;11.30;;;;;;;1.27;100.00;100115.81;105468;1257;69183;-57
2023/12/29 04:15:06;;;;;;;21.90;11.70;;;;;;;1.26;100.00;100114.96;105561;1251;72957;-58
2023/12/29 04:17:34;;;;;;;20.00;10.20;;;;;;;1.25;100.00;100115.49;105534;1257;81486;-57
2023/12/29 04:20:03;;;;;;;19.70;10.30;;;;;;;1.24;100.00;100116.52;105512;1251;72702;-57
2023/12/29 04:22:32;;;;;;;23.30;11.90;;;;;;;1.22;100.00;100114.98;105614;1257;69115;-57
2023/12/29 04:25:00;;;;;;;25.70;12.80;;;;;;;1.22;100.00;100108.45;105477;1257;69228;-57
2023/12/29 04:27:29;;;;;;;30.00;13.60;;;;;;;1.23;100.00;100109.30;105611;1251;72539;-57
2023/12/29 04:29:57;;;;;;;24.70;12.10;;;;;;;1.22;100.00;100107.56;105420;1257;81935;-57
2023/12/29 04:32:25;;;;;;;20.40;11.20;;;;;;;1.21;100.00;100102.94;105552;1251;71858;-57
2023/12/29 04:34:53;;;;;;;16.70;9.30;;;;;;;1.21;100.00;100106.72;105559;1256;69113;-57
2023/12/29 04:37:22;;;;;;;13.60;8.30;;;;;;;1.21;100.00;100105.52;105463;1257;69182;-57
2023/12/29 04:39:50;;;;;;;14.20;8.60;;;;;;;1.22;100.00;100100.86;105525;1257;73281;-57
2023/12/29 04:42:18;;;;;;;18.80;9.10;;;;;;;1.25;100.00;100102.41;105390;1254;80693;-57
2023/12/29 04:44:46;;;;;;;12.70;7.80;;;;;;;1.26;100.00;100101.02;105521;1254;70455;-57
2023/12/29 04:47:15;;;;;;;15.50;8.70;;;;;;;1.26;100.00;100099.64;105514;1257;69193;-57
2023/12/29 04:49:44;;;;;;;14.40;7.50;;;;;;;1.28;100.00;100097.91;105633;1257;69204;-57
2023/12/29 04:52:12;;;;;;;11.50;7.30;;;;;;;1.27;100.00;100094.30;105636;1254;74137;-57
2023/12/29 04:54:40;;;;;;;15.10;8.10;;;;;;;1.29;100.00;100093.79;105425;1258;81304;-57
2023/12/29 04:57:08;;;;;;;15.10;7.70;;;;;;;1.27;100.00;100088.45;105500;1257;72502;-57
2023/12/29 04:59:36;;;;;;;16.00;8.50;;;;;;;1.28;100.00;100087.25;105561;1257;69185;-57
2023/12/29 05:02:04;;;;;;;15.80;9.00;;;;;;;1.28;100.00;100091.89;105568;1257;69145;-57
2023/12/29 05:04:33;;;;;;;23.40;11.60;;;;;;;1.29;100.00;100088.44;105514;1252;73385;-57
2023/12/29 05:07:01;;;;;;;21.20;10.70;;;;;;;1.30;100.00;100077.93;105567;1257;81408;-58
2023/12/29 05:09:29;;;;;;;24.40;13.70;;;;;;;1.29;100.00;100076.73;105513;1255;71818;-57
2023/12/29 05:11:57;;;;;;;24.40;13.60;;;;;;;1.29;100.00;100077.25;105569;1256;69132;-57
2023/12/29 05:14:25;;;;;;;41.50;19.40;;;;;;;1.29;100.00;100073.30;105551;1257;69142;-57
2023/12/29 05:16:54;;;;;;;71.10;25.40;;;;;;;1.28;100.00;100064.87;105584;1254;72951;-58
2023/12/29 05:19:22;;;;;;;34.00;13.60;;;;;;;1.28;100.00;100070.55;105593;1257;81704;-57
2023/12/29 05:21:51;;;;;;;30.80;12.40;;;;;;;1.31;100.00;100069.50;105536;1258;71684;-59
2023/12/29 05:24:20;;;;;;;23.20;10.70;;;;;;;1.33;100.00;100064.50;105620;1257;69139;-59
2023/12/29 05:26:48;;;;;;;16.70;8.40;;;;;;;1.34;100.00;100063.80;105587;1257;69169;-59
2023/12/29 05:29:16;;;;;;;13.40;7.80;;;;;;;1.38;100.00;100061.55;105547;1256;73283;-59
2023/12/29 05:31:44;;;;;;;13.20;6.90;;;;;;;1.42;100.00;100065.48;105546;1256;81358;-60
2023/12/29 05:34:13;;;;;;;17.90;7.80;;;;;;;1.43;100.00;100063.24;105561;1257;72917;-59
2023/12/29 05:36:42;;;;;;;16.70;8.30;;;;;;;1.48;100.00;100048.58;105571;1257;69106;-57
2023/12/29 05:39:10;;;;;;;14.50;7.10;;;;;;;1.54;100.00;100045.80;105573;1257;69192;-57
2023/12/29 05:41:38;;;;;;;13.70;8.10;;;;;;;1.62;100.00;100049.70;105539;1251;73345;-57
2023/12/29 05:44:07;;;;;;;16.20;7.90;;;;;;;1.68;100.00;100043.98;105650;1257;81570;-57
2023/12/29 05:46:35;;;;;;;23.20;12.70;;;;;;;1.71;100.00;100043.45;105566;1256;72106;-57
2023/12/29 05:49:03;;;;;;;17.00;8.70;;;;;;;1.75;100.00;100042.21;105496;1251;69144;-57
2023/12/29 05:51:31;;;;;;;16.10;8.00;;;;;;;1.77;100.00;100038.05;105573;1255;69167;-57
2023/12/29 05:53:59;;;;;;;14.90;8.70;;;;;;;1.76;100.00;100037.20;105572;1251;72637;-56
2023/12/29 05:56:27;;;;;;;16.70;9.10;;;;;;;1.71;100.00;100042.07;105557;1256;81549;-57
2023/12/29 05:58:55;;;;;;;14.30;8.10;;;;;;;1.59;100.00;100043.17;105532;1254;70363;-57
2023/12/29 06:01:24;;;;;;;14.00;7.90;;;;;;;1.48;100.00;100043.41;105548;1255;69210;-56
2023/12/29 06:03:52;;;;;;;14.00;7.00;;;;;;;1.43;100.00;100044.30;105624;1256;69118;-57
2023/12/29 06:06:20;;;;;;;14.60;8.00;;;;;;;1.39;100.00;100039.52;105550;1251;72799;-57
2023/12/29 06:08:49;;;;;;;11.30;6.40;;;;;;;1.34;100.00;100042.80;105585;1255;81599;-57
2023/12/29 06:11:17;;;;;;;11.30;6.10;;;;;;;1.33;100.00;100042.13;105599;1257;72979;-57
2023/12/29 06:13:45;;;;;;;10.80;6.90;;;;;;;1.35;100.00;100047.27;105580;1251;69118;-57
2023/12/29 06:16:20;;;;;;;12.50;6.70;;;;;;;1.37;100.00;100043.66;105554;1256;69151;-56
2023/12/29 06:18:48;;;;;;;13.30;6.70;;;;;;;1.38;100.00;100040.71;105617;1251;72880;-59
2023/12/29 06:21:17;;;;;;;10.70;6.50;;;;;;;1.41;100.00;100042.94;105633;1251;81900;-59
2023/12/29 06:23:46;;;;;;;12.40;7.30;;;;;;;1.44;100.00;100042.91;105583;1251;72540;-59
2023/12/29 06:26:18;;;;;;;12.60;8.20;;;;;;;1.46;100.00;100047.05;105542;1255;69209;-57
2023/12/29 06:28:47;;;;;;;9.20;5.60;;;;;;;1.41;100.00;100046.73;105635;1251;69185;-57
2023/12/29 06:31:17;;;;;;;9.00;5.20;;;;;;;1.42;100.00;100046.36;105690;1256;73134;-57
2023/12/29 06:33:45;;;;;;;9.70;5.50;;;;;;;1.53;100.00;100042.86;105600;1256;81658;-57
2023/12/29 06:36:14;;;;;;;12.00;5.70;;;;;;;1.64;100.00;100044.34;105578;1252;71456;-57
2023/12/29 06:38:45;;;;;;;8.80;4.70;;;;;;;1.68;100.00;100049.33;105629;1256;69206;-57
2023/12/29 06:41:14;;;;;;;7.80;4.50;;;;;;;1.75;100.00;100052.55;105534;1255;69208;-57
2023/12/29 06:43:42;;;;;;;8.70;5.00;;;;;;;1.85;100.00;100057.98;105645;1255;73048;-57
2023/12/29 06:46:12;;;;;;;9.70;5.20;;;;;;;1.93;100.00;100054.14;105567;1252;81703;-57
2023/12/29 06:48:41;;;;;;;6.90;4.00;;;;;;;2.01;100.00;100050.64;105593;1251;72117;-57
2023/12/29 06:51:11;;;;;;;6.50;4.20;;;;;;;2.10;100.00;100049.88;105718;1251;69152;-57
2023/12/29 06:53:39;;;;;;;8.80;5.00;;;;;;;2.21;100.00;100050.98;105446;1257;69212;-58
2023/12/29 06:56:07;;;;;;;7.10;4.90;;;;;;;2.30;100.00;100043.67;105696;1251;72778;-58
2023/12/29 06:58:36;;;;;;;11.70;5.30;;;;;;;2.37;100.00;100044.30;105543;1251;81796;-58
2023/12/29 07:01:04;;;;;;;7.30;5.10;;;;;;;2.37;100.00;100044.30;105544;1251;71798;-58
2023/12/29 07:03:32;;;;;;;12.00;6.50;;;;;;;2.36;100.00;100045.69;105554;1256;69118;-58
2023/12/29 07:06:01;;;;;;;13.00;6.70;;;;;;;2.33;100.00;100041.39;105638;1256;69155;-58
2023/12/29 07:08:30;;;;;;;10.90;6.50;;;;;;;2.32;100.00;100038.48;105619;1256;73431;-58
2023/12/29 07:10:58;;;;;;;13.50;6.60;;;;;;;2.32;100.00;100038.13;105579;1257;82764;-58
2023/12/29 07:13:26;;;;;;;9.90;5.10;;;;;;;2.33;100.00;100035.38;105612;1251;73667;-58
2023/12/29 07:15:55;;;;;;;8.20;4.70;;;;;;;2.34;100.00;100030.70;105672;1251;69157;-58
2023/12/29 07:18:23;;;;;;;9.00;4.80;;;;;;;2.36;100.00;100027.23;105549;1255;69146;-59
2023/12/29 07:20:51;;;;;;;7.90;4.60;;;;;;;2.40;100.00;100024.43;105642;1251;73273;-58
2023/12/29 07:23:20;;;;;;;8.30;4.20;;;;;;;2.44;100.00;100017.67;105569;1255;81567;-59
2023/12/29 07:25:48;;;;;;;8.40;4.40;;;;;;;2.50;100.00;100010.71;105541;1253;72321;-58
2023/12/29 07:28:16;;;;;;;7.80;4.00;;;;;;;2.54;100.00;100006.02;105633;1251;69090;-58
2023/12/29 07:30:45;;;;;;;8.20;4.20;;;;;;;2.57;100.00;100006.86;105575;1255;69197;-58
2023/12/29 07:33:13;;;;;;;6.80;4.00;;;;;;;2.59;100.00;100006.13;105542;1251;72780;-58
2023/12/29 07:35:41;;;;;;;10.50;4.00;;;;;;;2.60;100.00;100006.98;105637;1256;81378;-58
2023/12/29 07:38:10;;;;;;;7.30;4.20;;;;;;;2.60;100.00;100006.29;105584;1251;72271;-58
2023/12/29 07:40:38;;;;;;;5.70;3.60;;;;;;;2.61;100.00;100004.73;105584;1251;69065;-59
2023/12/29 07:43:06;;;;;;;7.30;4.20;;;;;;;2.57;100.00;100003.23;105520;1257;69129;-58
2023/12/29 07:45:37;;;;;;;8.00;3.90;;;;;;;2.58;100.00;99997.02;105651;1251;72747;-58
2023/12/29 07:48:05;;;;;;;7.70;3.70;;;;;;;2.62;100.00;100001.45;105646;1251;82841;-58
2023/12/29 07:50:37;;;;;;;6.80;3.80;;;;;;;2.67;100.00;100006.56;105561;1255;71810;-58
2023/12/29 07:53:06;;;;;;;7.60;4.10;;;;;;;2.78;100.00;100007.47;105587;1251;69092;-58
2023/12/29 07:55:38;;;;;;;6.30;3.90;;;;;;;2.88;100.00;100011.66;105631;1255;69212;-58
2023/12/29 07:58:06;;;;;;;6.40;3.60;;;;;;;2.95;100.00;100012.11;105616;1251;72863;-58
2023/12/29 08:00:34;;;;;;;8.10;3.50;;;;;;;3.02;100.00;100010.30;105537;1256;81907;-58
2023/12/29 08:03:05;;;;;;;7.30;3.10;;;;;;;3.11;100.00;100008.45;105547;1253;71388;-58
2023/12/29 08:05:34;;;;;;;7.30;3.80;;;;;;;3.23;100.00;100008.30;105580;1251;69059;-58
2023/12/29 08:08:03;;;;;;;7.00;3.40;;;;;;;3.34;100.00;100007.80;105541;1255;69219;-58
2023/12/29 08:10:31;;;;;;;11.30;4.30;;;;;;;3.44;100.00;100004.38;105643;1251;71835;-58
2023/12/29 08:12:59;;;;;;;7.60;4.10;;;;;;;3.52;100.00;100007.20;105624;1253;81332;-59
2023/12/29 08:15:28;;;;;;;11.60;5.10;;;;;;;3.60;100.00;100009.33;105563;1251;71048;-58
2023/12/29 08:17:56;;;;;;;9.70;4.50;;;;;;;3.67;100.00;100010.95;105620;1256;69205;-58
2023/12/29 08:20:25;;;;;;;8.70;4.00;;;;;;;3.76;100.00;100010.46;105688;1252;69180;-58
2023/12/29 08:22:53;;;;;;;7.80;3.30;;;;;;;3.89;100.00;100010.62;105630;1251;73432;-58
2023/12/29 08:25:21;;;;;;;7.40;3.50;;;;;;;4.06;100.00;100015.70;105673;1255;81979;-57
2023/12/29 08:27:49;;;;;;;6.50;2.50;;;;;;;4.26;100.00;100013.81;105628;1253;71752;-58
2023/12/29 08:30:17;;;;;;;5.20;2.60;;;;;;;4.41;100.00;100012.85;105573;1255;69251;-57
2023/12/29 08:32:46;;;;;;;4.10;2.30;;;;;;;4.58;100.00;100012.54;105591;1256;69192;-57
2023/12/29 08:35:14;;;;;;;4.70;2.60;;;;;;;4.77;100.00;100007.52;105576;1252;73105;-58
2023/12/29 08:37:43;;;;;;;4.00;2.40;;;;;;;4.92;100.00;100012.39;105577;1255;82055;-58
2023/12/29 08:40:11;;;;;;;3.90;2.50;;;;;;;5.05;100.00;100014.55;105592;1251;71705;-58
2023/12/29 08:42:40;;;;;;;4.10;2.50;;;;;;;5.18;100.00;100011.00;105579;1251;69174;-57
2023/12/29 08:45:08;;;;;;;4.30;2.20;;;;;;;5.30;100.00;100007.63;105551;1255;69614;-58
2023/12/29 08:47:37;;;;;;;3.70;2.30;;;;;;;5.40;100.00;100007.59;105577;1251;73211;-57
2023/12/29 08:50:06;;;;;;;2.80;2.20;;;;;;;5.48;100.00;100013.13;105571;1252;82078;-58
2023/12/29 08:52:34;;;;;;;4.30;2.40;;;;;;;5.57;100.00;100015.86;105600;1251;71261;-58
2023/12/29 08:55:03;;;;;;;4.60;2.60;;;;;;;5.67;100.00;100014.41;105585;1256;69218;-57
2023/12/29 08:57:31;;;;;;;4.50;2.80;;;;;;;5.75;100.00;100020.64;105626;1251;69221;-58
2023/12/29 09:00:00;;;;;;;4.00;2.60;;;;;;;5.83;100.00;100020.27;105650;1251;71682;-58
2023/12/29 09:02:28;;;;;;;4.00;2.60;;;;;;;5.93;100.00;100024.05;105645;1252;83007;-58
2023/12/29 09:04:56;;;;;;;3.90;2.40;;;;;;;6.04;100.00;100029.17;105547;1255;70855;-58
2023/12/29 09:07:24;;;;;;;3.90;2.60;;;;;;;6.17;100.00;100029.21;105581;1255;69172;-57
2023/12/29 09:09:52;;;;;;;3.30;2.20;;;;;;;6.28;100.00;100032.40;105655;1256;69285;-58
2023/12/29 09:12:21;;;;;;;3.40;2.10;;;;;;;6.38;100.00;100027.98;105587;1251;73240;-58
2023/12/29 09:14:49;;;;;;;4.30;2.30;;;;;;;6.49;100.00;100024.92;105573;1256;82362;-58
2023/12/29 09:17:17;;;;;;;4.00;2.20;;;;;;;6.59;100.00;100020.31;105551;1253;70605;-58
2023/12/29 09:19:46;;;;;;;5.40;2.50;;;;;;;6.70;100.00;100026.25;105599;1255;69199;-58
2023/12/29 09:22:23;;;;;;;4.10;2.80;;;;;;;6.83;100.00;100032.52;105594;1251;69283;-58
2023/12/29 09:24:54;;;;;;;4.80;2.10;;;;;;;6.93;100.00;100030.69;105609;1251;74957;-58
2023/12/29 09:27:23;;;;;;;4.90;2.40;;;;;;;6.98;100.00;100026.52;105582;1251;82921;-58
2023/12/29 09:29:51;;;;;;;3.80;2.10;;;;;;;7.01;100.00;100030.98;105523;1253;71702;-58
2023/12/29 09:32:19;;;;;;;4.00;2.30;;;;;;;7.02;100.00;100024.17;105642;1255;69154;-57
2023/12/29 09:34:47;;;;;;;5.20;2.70;;;;;;;7.04;100.00;100029.15;105601;1256;69177;-58
2023/12/29 09:37:15;;;;;;;7.10;4.00;;;;;;;7.06;100.00;100028.90;105588;1251;72892;-58
2023/12/29 09:39:44;;;;;;;5.20;2.90;;;;;;;7.12;100.00;100029.80;105572;1255;81964;-58
2023/12/29 09:42:21;;;;;;;6.70;2.90;;;;;;;7.19;100.00;100033.94;105584;1251;72221;-57
2023/12/29 09:44:51;;;;;;;6.20;3.10;;;;;;;7.29;100.00;100029.45;105602;1251;69161;-58
2023/12/29 09:47:24;;;;;;;5.40;2.80;;;;;;;7.37;100.00;100023.48;105651;1251;69180;-58
2023/12/29 09:49:53;;;;;;;8.80;3.40;;;;;;;7.46;100.00;100021.85;105564;1251;73050;-58
2023/12/29 09:52:22;;;;;;;5.20;2.40;;;;;;;7.55;100.00;100021.39;105683;1256;81686;-57
2023/12/29 09:54:51;;;;;;;5.20;2.90;;;;;;;7.68;100.00;100024.65;105540;1255;71776;-59
2023/12/29 09:57:20;;;;;;;5.10;2.50;;;;;;;7.81;100.00;100023.36;105700;1251;69168;-60
2023/12/29 09:59:51;;;;;;;5.20;3.10;;;;;;;7.94;100.00;100018.23;105452;1257;69215;-59
2023/12/29 10:02:22;;;;;;;5.00;2.80;;;;;;;8.07;100.00;100012.59;105617;1251;72991;-59
2023/12/29 10:04:50;;;;;;;;;;;;;;;8.20;100.00;100014.61;105593;1251;83802;-59
2023/12/29 10:07:25;;;;;;;6.00;3.00;;;;;;;8.35;100.00;100021.09;105587;1256;72296;-59
2023/12/29 10:09:55;;;;;;;6.90;3.10;;;;;;;8.48;99.85;100020.67;105599;1251;69151;-59
2023/12/29 10:12:25;;;;;;;5.30;2.80;;;;;;;8.61;99.13;100023.35;105561;1256;69175;-59
2023/12/29 10:15:10;;;;;;;3.80;2.20;;;;;;;8.81;98.78;100021.41;105625;1252;73263;-59
2023/12/29 10:18:02;;;;;;;2.10;1.40;;;;;;;9.07;98.22;100024.63;105635;1255;81626;-58
2023/12/29 10:20:50;;;;;;;2.10;1.20;;;;;;;9.37;96.90;100022.83;105624;1251;71503;-59
2023/12/29 10:23:32;;;;;;;1.70;0.80;;;;;;;9.62;96.49;100018.38;105648;1253;69105;-59
2023/12/29 10:26:01;;;;;;;4.60;1.70;;;;;;;9.86;95.39;100021.80;105598;1256;69201;-59
2023/12/29 10:28:29;;;;;;;3.10;1.20;;;;;;;10.05;94.63;100013.36;105477;1251;72993;-59
2023/12/29 10:30:58;;;;;;;2.10;1.10;;;;;;;10.24;94.36;100009.09;105632;1256;83629;-57
2023/12/29 10:33:29;;;;;;;5.20;1.40;;;;;;;10.40;93.50;100013.64;105652;1253;70389;-57
2023/12/29 10:36:03;;;;;;;2.50;1.00;;;;;;;10.54;92.64;100011.84;105619;1256;69099;-57
2023/12/29 10:38:32;;;;;;;2.10;0.90;;;;;;;10.68;92.25;100015.26;105628;1251;69157;-57
2023/12/29 10:41:14;;;;;;;2.00;1.00;;;;;;;10.80;89.54;100004.94;105577;1255;126922;-58
2023/12/29 10:43:44;;;;;;;3.10;1.10;;;;;;;10.89;89.01;100015.03;105655;1256;82777;-57
2023/12/29 10:46:12;;;;;;;1.50;0.90;;;;;;;10.97;87.85;100008.71;105649;1251;72847;-57
2023/12/29 10:48:41;;;;;;;1.80;0.80;;;;;;;11.10;87.73;100007.08;105613;1256;69142;-57
2023/12/29 10:51:09;;;;;;;1.90;1.10;;;;;;;11.25;86.22;100005.35;105658;1255;69241;-60
2023/12/29 10:53:38;;;;;;;2.50;1.30;;;;;;;11.33;86.10;100001.14;105635;1251;72571;-60
2023/12/29 10:56:22;;;;;;;3.80;1.70;;;;;;;11.45;86.32;99996.75;105587;1253;82913;-59
2023/12/29 10:59:00;;;;;;;2.30;1.20;;;;;;;11.56;85.33;99998.50;105606;1251;72023;-60
2023/12/29 11:01:37;;;;;;;1.70;0.90;;;;;;;11.63;84.92;99994.48;105587;1251;69084;-59
2023/12/29 11:04:07;;;;;;;1.40;0.80;;;;;;;11.68;83.77;99997.57;105601;1255;69170;-58
2023/12/29 11:06:44;;;;;;;3.60;1.10;;;;;;;11.76;84.09;99988.42;105637;1251;72875;-57
2023/12/29 11:09:13;;;;;;;1.80;0.80;;;;;;;11.78;81.97;99997.94;105633;1256;82794;-58
2023/12/29 11:11:43;;;;;;;2.10;1.00;;;;;;;11.77;81.34;99993.10;105488;1254;72023;-57
2023/12/29 11:14:11;;;;;;;2.00;0.90;;;;;;;11.80;81.76;99986.31;105505;1251;69057;-57
2023/12/29 11:16:41;;;;;;;1.80;0.80;;;;;;;11.85;81.02;99983.81;105663;1255;69125;-57
2023/12/29 11:19:09;;;;;;;2.40;1.40;;;;;;;11.90;80.91;99984.65;105511;1251;74223;-57
2023/12/29 11:21:38;;;;;;;3.80;1.70;;;;;;;11.93;80.43;99985.87;105503;1253;81818;-57